Time;durP1;ratioP1;P1;durP2;ratioP2;P2;SDS_P1;SDS_P2;PMS_P1;PMS_P2;Temp;Humidity;BMP_temperature;BMP_pressure;BME280_temperature;BME280_humidity;BME280_pressure;Samples;Min_cycle;Max_cycle;Signal;HPM_P1;HPM_P2
2020/12/08 00:01:50;;;;;;;17.70;11.65;;;3.00;99.90;;;;;;5002390;28;20590;-75
2020/12/08 00:04:17;;;;;;;15.77;11.18;;;3.20;99.90;;;;;;5035959;28;20167;-75
2020/12/08 00:06:45;;;;;;;16.17;11.75;;;3.10;99.90;;;;;;5036239;28;20174;-75
2020/12/08 00:09:14;;;;;;;17.02;11.30;;;3.10;99.90;;;;;;5018423;28;20165;-75
2020/12/08 00:11:40;;;;;;;16.83;10.88;;;3.00;99.90;;;;;;5002171;28;20238;-75
2020/12/08 00:14:06;;;;;;;14.10;11.13;;;3.00;99.90;;;;;;5036446;28;20173;-75
2020/12/08 00:16:32;;;;;;;13.05;9.10;;;2.90;99.90;;;;;;5035749;28;20404;-75
2020/12/08 00:18:58;;;;;;;19.08;9.90;;;2.90;99.90;;;;;;5018056;28;20208;-75
2020/12/08 00:21:28;;;;;;;16.00;10.30;;;2.80;99.90;;;;;;5035654;28;20174;-75
2020/12/08 00:23:57;;;;;;;13.75;9.95;;;2.80;99.90;;;;;;5035590;28;20174;-75
2020/12/08 00:26:23;;;;;;;13.52;9.77;;;2.70;99.90;;;;;;5018136;28;20196;-75
2020/12/08 00:28:49;;;;;;;13.43;9.30;;;2.80;99.90;;;;;;5018201;28;20174;-76
2020/12/08 00:31:15;;;;;;;15.47;9.97;;;2.60;99.90;;;;;;4985470;28;20307;-75
2020/12/08 00:33:41;;;;;;;14.52;9.38;;;2.50;99.90;;;;;;5017900;28;20411;-75
2020/12/08 00:36:07;;;;;;;14.97;10.17;;;2.50;99.90;;;;;;5035637;28;20727;-75
2020/12/08 00:38:35;;;;;;;13.02;9.35;;;2.50;99.90;;;;;;5002232;28;20422;-75
2020/12/08 00:41:01;;;;;;;13.97;9.70;;;2.50;99.90;;;;;;5017683;28;20189;-75
2020/12/08 00:43:29;;;;;;;14.40;10.00;;;2.40;99.90;;;;;;5034139;28;20477;-75
2020/12/08 00:45:58;;;;;;;14.60;10.00;;;2.50;99.90;;;;;;5017677;28;20201;-75
2020/12/08 00:48:24;;;;;;;15.50;9.27;;;2.50;99.90;;;;;;5016295;28;20446;-75
2020/12/08 00:50:53;;;;;;;13.88;9.88;;;2.60;99.90;;;;;;5035426;28;20174;-75
2020/12/08 00:53:19;;;;;;;15.80;11.00;;;2.30;99.90;;;;;;5001548;28;20173;-75
2020/12/08 00:55:45;;;;;;;15.43;10.73;;;2.30;99.90;;;;;;5001215;28;20214;-75
2020/12/08 00:58:11;;;;;;;16.15;10.98;;;2.40;99.90;;;;;;5017657;28;20170;-75
2020/12/08 01:00:40;;;;;;;16.48;10.60;;;2.20;99.90;;;;;;5017551;28;20620;-76
2020/12/08 01:03:09;;;;;;;16.23;10.40;;;2.20;99.90;;;;;;5057897;23;20341;-88
2020/12/08 01:05:35;;;;;;;16.50;10.55;;;2.30;99.90;;;;;;5036691;28;20686;-88
2020/12/08 01:08:06;;;;;;;17.77;10.38;;;2.20;99.90;;;;;;5019845;28;20181;-88
2020/12/08 01:10:41;;;;;;;16.90;9.55;;;2.30;99.90;;;;;;5035392;28;20189;-88
2020/12/08 01:13:09;;;;;;;15.45;10.10;;;2.00;99.90;;;;;;5032493;28;20204;-88
2020/12/08 01:15:35;;;;;;;19.13;11.10;;;2.20;99.90;;;;;;5016167;28;20198;-88
2020/12/08 01:18:01;;;;;;;14.67;10.43;;;2.20;99.90;;;;;;5017026;28;20510;-88
2020/12/08 01:20:31;;;;;;;13.65;9.63;;;2.00;99.90;;;;;;5032307;28;20803;-88
2020/12/08 01:22:57;;;;;;;15.95;10.60;;;2.00;99.90;;;;;;5015956;28;20178;-88
2020/12/08 01:25:26;;;;;;;14.80;10.55;;;1.90;99.90;;;;;;5032702;28;20182;-87
2020/12/08 01:27:52;;;;;;;17.90;10.50;;;2.00;99.90;;;;;;5032391;28;20178;-87
2020/12/08 01:30:20;;;;;;;17.98;10.65;;;2.10;99.90;;;;;;5015741;28;20193;-88
2020/12/08 01:32:48;;;;;;;18.48;11.30;;;2.00;99.90;;;;;;5015746;28;20209;-88
2020/12/08 01:35:20;;;;;;;20.83;11.63;;;1.80;99.90;;;;;;5015696;28;20184;-88
2020/12/08 01:37:54;;;;;;;18.38;11.38;;;1.40;99.90;;;;;;5032079;28;20166;-87
2020/12/08 01:40:20;;;;;;;17.33;10.45;;;2.00;99.90;;;;;;5045560;28;20762;-87
2020/12/08 01:42:46;;;;;;;19.90;12.00;;;1.90;99.90;;;;;;5002304;28;20220;-87
2020/12/08 01:45:12;;;;;;;19.00;11.82;;;1.80;99.90;;;;;;5051596;28;20427;-87
2020/12/08 01:47:43;;;;;;;16.40;11.93;;;2.00;99.90;;;;;;5034997;28;20200;-88
2020/12/08 01:50:13;;;;;;;17.02;11.23;;;1.70;99.90;;;;;;5035100;28;20412;-87
2020/12/08 01:52:40;;;;;;;18.05;10.43;;;2.00;99.90;;;;;;5051854;28;20223;-87
2020/12/08 01:55:13;;;;;;;18.13;11.45;;;1.50;99.90;;;;;;5051534;28;20192;-86
2020/12/08 01:57:43;;;;;;;19.70;11.73;;;1.90;99.90;;;;;;5034823;28;20181;-87
2020/12/08 02:00:14;;;;;;;16.75;11.73;;;1.90;99.90;;;;;;5051106;28;20205;-87
2020/12/08 02:02:45;;;;;;;18.05;11.98;;;2.10;99.90;;;;;;5034885;28;20233;-88
2020/12/08 02:05:30;;;;;;;19.63;11.70;;;2.10;99.90;;;;;;5051268;28;20188;-87
2020/12/08 02:07:56;;;;;;;18.98;11.82;;;2.10;99.90;;;;;;5035081;28;20177;-87
2020/12/08 02:10:23;;;;;;;17.50;11.63;;;2.00;99.90;;;;;;5018547;28;20572;-87
2020/12/08 02:12:53;;;;;;;20.13;11.85;;;2.10;99.90;;;;;;5034678;28;20196;-87
2020/12/08 02:15:29;;;;;;;19.00;11.50;;;2.30;99.90;;;;;;5050832;28;20474;-87
2020/12/08 02:17:55;;;;;;;18.80;11.88;;;2.40;99.90;;;;;;5051398;28;20258;-87
2020/12/08 02:20:26;;;;;;;18.25;11.32;;;2.30;99.90;;;;;;5034764;28;20653;-87
2020/12/08 02:22:58;;;;;;;17.55;11.90;;;2.30;99.90;;;;;;5050756;28;20200;-87
2020/12/08 02:25:27;;;;;;;17.80;11.00;;;2.30;99.90;;;;;;5051115;28;20243;-87
2020/12/08 02:27:59;;;;;;;16.92;11.30;;;2.50;99.90;;;;;;5050626;28;20417;-88
2020/12/08 02:30:27;;;;;;;19.75;12.50;;;2.50;99.90;;;;;;5051184;28;20189;-87
2020/12/08 02:32:56;;;;;;;20.85;13.73;;;2.40;99.90;;;;;;5035317;28;20185;-87
2020/12/08 02:35:24;;;;;;;18.95;12.23;;;2.40;99.90;;;;;;5050802;28;20276;-87
2020/12/08 02:37:50;;;;;;;20.75;13.38;;;2.60;99.90;;;;;;5051299;28;20180;-88
2020/12/08 02:40:18;;;;;;;19.70;12.57;;;2.40;99.90;;;;;;5034079;28;20213;-88
2020/12/08 02:42:46;;;;;;;18.60;12.43;;;2.50;99.90;;;;;;5050547;28;20180;-88
2020/12/08 02:45:12;;;;;;;20.15;13.60;;;2.60;99.90;;;;;;5050810;28;20197;-87
2020/12/08 02:47:41;;;;;;;19.45;12.82;;;2.60;99.90;;;;;;5034476;28;20209;-88
2020/12/08 02:50:07;;;;;;;18.23;11.57;;;2.60;99.90;;;;;;5022110;28;20594;-88
2020/12/08 02:52:34;;;;;;;17.58;13.18;;;2.70;99.90;;;;;;4998405;28;20833;-87
2020/12/08 02:55:00;;;;;;;21.00;15.32;;;2.80;99.90;;;;;;5014579;28;20185;-88
2020/12/08 02:57:29;;;;;;;18.23;13.65;;;2.80;99.90;;;;;;5030413;28;20201;-87
2020/12/08 02:59:57;;;;;;;17.30;13.17;;;2.70;99.90;;;;;;5040341;28;20689;-87
2020/12/08 03:02:28;;;;;;;18.50;12.77;;;2.90;99.90;;;;;;5040033;28;20463;-88
2020/12/08 03:04:54;;;;;;;19.73;12.10;;;2.90;99.90;;;;;;5017621;28;20319;-88
2020/12/08 03:07:23;;;;;;;20.95;14.20;;;2.60;99.90;;;;;;5034750;28;20477;-87
2020/12/08 03:09:50;;;;;;;23.30;15.25;;;3.00;99.90;;;;;;5025252;28;20192;-87
2020/12/08 03:12:18;;;;;;;16.83;12.48;;;3.00;99.90;;;;;;5001375;28;20273;-87
2020/12/08 03:14:48;;;;;;;20.23;14.00;;;2.90;99.90;;;;;;5018478;28;20169;-87
2020/12/08 03:17:24;;;;;;;21.20;14.05;;;3.00;99.90;;;;;;4985801;28;20269;-89
2020/12/08 03:19:50;;;;;;;22.70;13.10;;;3.30;99.90;;;;;;5018665;28;20299;-89
2020/12/08 03:22:17;;;;;;;24.08;15.05;;;3.00;99.90;;;;;;5018578;28;20752;-88
2020/12/08 03:24:48;;;;;;;21.00;13.68;;;3.10;99.90;;;;;;5018192;28;20264;-89
2020/12/08 03:27:21;;;;;;;24.30;15.20;;;3.00;99.90;;;;;;5001813;28;20178;-90
2020/12/08 03:29:50;;;;;;;23.30;14.82;;;3.10;99.90;;;;;;5001519;28;20627;-89
2020/12/08 03:32:21;;;;;;;21.40;15.27;;;3.30;99.90;;;;;;5017254;28;20186;-89
2020/12/08 03:34:49;;;;;;;23.08;15.23;;;3.30;99.90;;;;;;5017612;28;20186;-89
2020/12/08 03:37:17;;;;;;;22.70;14.82;;;3.20;99.90;;;;;;5017652;28;20182;-89
2020/12/08 03:39:43;;;;;;;24.88;15.23;;;3.10;99.90;;;;;;5017448;28;20198;-90
2020/12/08 03:42:10;;;;;;;22.98;15.02;;;3.20;99.90;;;;;;5030815;28;20626;-89
2020/12/08 03:44:40;;;;;;;23.17;15.27;;;3.10;99.90;;;;;;5020882;28;20185;-89
2020/12/08 03:47:14;;;;;;;20.60;14.55;;;3.20;99.90;;;;;;5005531;28;20196;-89
2020/12/08 03:49:42;;;;;;;22.70;15.30;;;3.40;99.90;;;;;;5018865;28;20185;-89
2020/12/08 03:52:09;;;;;;;24.23;14.93;;;3.50;99.90;;;;;;5001187;28;20432;-89
2020/12/08 03:54:35;;;;;;;24.02;15.05;;;3.30;99.90;;;;;;5017554;28;20189;-89
2020/12/08 03:57:07;;;;;;;22.38;14.18;;;2.90;99.90;;;;;;5001725;28;20303;-89
2020/12/08 03:59:34;;;;;;;20.10;14.25;;;3.40;99.90;;;;;;5001574;28;20205;-89
2020/12/08 04:02:06;;;;;;;22.70;15.32;;;3.40;99.90;;;;;;5044581;28;20233;-90
2020/12/08 04:04:39;;;;;;;21.15;14.82;;;3.10;99.90;;;;;;5036935;28;20177;-90
2020/12/08 04:07:06;;;;;;;20.90;14.57;;;3.50;99.90;;;;;;5053988;28;20172;-89
2020/12/08 04:09:36;;;;;;;21.48;14.65;;;3.60;99.90;;;;;;5037132;28;20276;-89
2020/12/08 04:12:05;;;;;;;19.80;13.45;;;3.40;99.90;;;;;;5037275;28;20272;-89
2020/12/08 04:14:34;;;;;;;22.95;15.73;;;3.10;99.90;;;;;;5029489;28;20217;-89
2020/12/08 04:17:02;;;;;;;22.30;14.07;;;3.50;99.90;;;;;;5001256;28;20247;-89
2020/12/08 04:19:28;;;;;;;25.85;16.80;;;3.60;99.90;;;;;;5033306;28;20225;-89
2020/12/08 04:22:01;;;;;;;20.90;14.20;;;3.50;99.90;;;;;;5016831;28;20186;-89
2020/12/08 04:24:41;;;;;;;21.35;13.77;;;3.40;99.90;;;;;;5017056;28;20405;-90
2020/12/08 04:27:07;;;;;;;23.67;15.27;;;3.40;99.90;;;;;;5017432;28;20182;-89
2020/12/08 04:29:42;;;;;;;23.60;15.43;;;3.50;99.90;;;;;;5033222;28;20205;-89
2020/12/08 04:32:09;;;;;;;23.25;14.45;;;3.50;99.90;;;;;;5033138;28;20542;-89
2020/12/08 04:34:34;;;;;;;23.93;15.80;;;3.50;99.90;;;;;;5016961;28;20186;-89
2020/12/08 04:37:03;;;;;;;21.17;14.73;;;3.50;99.90;;;;;;5033252;28;20510;-90
2020/12/08 04:39:29;;;;;;;22.83;14.35;;;3.50;99.90;;;;;;5016604;28;20525;-89
2020/12/08 04:41:55;;;;;;;25.03;15.30;;;3.70;99.90;;;;;;5044362;28;20693;-90
2020/12/08 04:44:26;;;;;;;21.15;14.75;;;3.50;99.90;;;;;;5019838;28;20869;-89
2020/12/08 04:46:57;;;;;;;23.48;15.48;;;3.60;99.90;;;;;;5019424;28;20201;-89
2020/12/08 04:49:24;;;;;;;24.95;15.18;;;3.50;99.90;;;;;;5052728;28;20223;-89
2020/12/08 04:51:51;;;;;;;22.25;14.25;;;3.60;99.90;;;;;;5020102;28;20235;-89
2020/12/08 04:54:17;;;;;;;18.70;13.93;;;3.40;99.90;;;;;;5036888;28;20258;-89
2020/12/08 04:56:48;;;;;;;22.30;14.23;;;3.50;99.90;;;;;;5036460;28;20196;-89
2020/12/08 04:59:22;;;;;;;23.40;14.80;;;3.60;99.90;;;;;;5036286;28;20217;-89
2020/12/08 05:01:48;;;;;;;19.10;13.27;;;3.60;99.90;;;;;;5052421;28;20692;-88
2020/12/08 05:04:23;;;;;;;21.85;14.75;;;3.60;99.90;;;;;;5036226;28;20217;-90
2020/12/08 05:07:01;;;;;;;22.48;13.75;;;3.60;99.90;;;;;;5019551;28;20177;-88
2020/12/08 05:09:27;;;;;;;21.55;14.48;;;3.30;99.90;;;;;;5019441;28;20207;-89
2020/12/08 05:12:01;;;;;;;24.58;15.57;;;3.50;99.90;;;;;;5019405;28;20223;-89
2020/12/08 05:14:41;;;;;;;25.35;15.75;;;3.70;99.90;;;;;;5020252;28;20213;-88
2020/12/08 05:17:10;;;;;;;24.02;15.95;;;3.80;99.90;;;;;;5032120;28;20266;-89
2020/12/08 05:19:35;;;;;;;24.33;15.65;;;3.80;99.90;;;;;;5036632;28;20729;-88
2020/12/08 05:22:01;;;;;;;32.07;16.70;;;3.90;99.90;;;;;;5020352;28;20260;-88
2020/12/08 05:24:32;;;;;;;23.60;15.70;;;3.60;99.90;;;;;;5015936;28;20803;-89
2020/12/08 05:27:03;;;;;;;25.02;16.27;;;3.70;99.90;;;;;;5015864;28;20427;-89
2020/12/08 05:29:36;;;;;;;20.77;15.15;;;3.70;99.90;;;;;;5016672;28;20186;-89
2020/12/08 05:32:35;;;;;;;24.38;15.50;;;3.70;99.90;;;;;;5031955;28;20216;-88
2020/12/08 05:35:15;;;;;;;25.58;16.17;;;3.80;99.90;;;;;;5015242;28;20599;-89
2020/12/08 05:37:43;;;;;;;21.77;14.48;;;3.60;99.90;;;;;;5016391;28;20200;-89
2020/12/08 05:40:22;;;;;;;23.02;16.40;;;3.70;99.90;;;;;;5016467;28;20276;-89
2020/12/08 05:42:52;;;;;;;23.55;15.68;;;3.60;99.90;;;;;;5031905;28;20619;-89
2020/12/08 05:45:20;;;;;;;26.00;15.65;;;3.80;99.90;;;;;;5016568;28;20178;-89
2020/12/08 05:47:54;;;;;;;25.98;17.45;;;3.80;99.90;;;;;;5015639;28;20181;-89
2020/12/08 05:50:23;;;;;;;29.15;18.30;;;3.80;99.90;;;;;;5031773;28;20623;-89
2020/12/08 05:52:56;;;;;;;25.65;17.52;;;3.80;99.90;;;;;;5047674;28;20173;-89
2020/12/08 05:55:25;;;;;;;31.75;20.20;;;3.90;99.90;;;;;;5051888;28;20173;-89
2020/12/08 05:57:53;;;;;;;31.20;20.02;;;3.90;99.90;;;;;;5019410;28;20190;-89
2020/12/08 06:00:30;;;;;;;26.73;17.27;;;4.00;99.90;;;;;;5016127;28;20228;-89
2020/12/08 06:03:11;;;;;;;26.48;17.48;;;4.00;99.90;;;;;;5033365;28;20471;-89
2020/12/08 06:05:38;;;;;;;26.23;17.58;;;4.00;99.90;;;;;;5035614;28;20166;-89
2020/12/08 06:08:13;;;;;;;29.95;19.13;;;4.10;99.90;;;;;;5035872;28;20178;-89
2020/12/08 06:11:09;;;;;;;29.67;17.90;;;4.00;99.90;;;;;;5035317;28;20195;-89
2020/12/08 06:13:36;;;;;;;30.52;20.30;;;4.30;99.90;;;;;;5035007;28;20677;-89
2020/12/08 06:16:22;;;;;;;29.48;19.13;;;4.20;99.90;;;;;;5034814;28;20272;-89
2020/12/08 06:18:53;;;;;;;33.15;20.65;;;4.20;99.90;;;;;;5034403;28;20241;-89
2020/12/08 06:21:23;;;;;;;31.23;19.70;;;4.30;99.90;;;;;;5051539;28;20188;-89
2020/12/08 06:23:54;;;;;;;30.42;20.02;;;4.30;99.90;;;;;;5035848;28;20241;-89
2020/12/08 06:26:42;;;;;;;30.25;20.77;;;4.30;99.90;;;;;;5051016;28;20281;-89
2020/12/08 06:29:09;;;;;;;30.02;18.58;;;4.40;99.90;;;;;;5035453;28;20162;-89
2020/12/08 06:31:49;;;;;;;30.38;18.65;;;4.40;99.90;;;;;;5029536;28;20525;-89
2020/12/08 06:34:20;;;;;;;26.00;17.70;;;4.40;99.90;;;;;;5015415;28;20189;-89
2020/12/08 06:36:49;;;;;;;29.33;20.20;;;4.50;99.90;;;;;;5015668;28;20185;-89
2020/12/08 06:39:18;;;;;;;25.55;17.83;;;4.50;99.90;;;;;;5014623;28;20229;-89
2020/12/08 06:41:46;;;;;;;29.38;17.83;;;4.60;99.90;;;;;;5024501;28;20208;-90
2020/12/08 06:44:22;;;;;;;25.55;17.27;;;4.60;99.90;;;;;;5034295;28;20216;-88
2020/12/08 06:46:58;;;;;;;26.80;16.85;;;4.60;99.90;;;;;;5051064;28;20575;-88
2020/12/08 06:49:38;;;;;;;25.55;17.52;;;4.70;99.90;;;;;;5035146;28;20257;-87
2020/12/08 06:52:08;;;;;;;20.05;13.85;;;4.40;99.90;;;;;;5034347;28;20173;-89
2020/12/08 06:54:36;;;;;;;21.20;13.60;;;4.60;99.90;;;;;;5034994;28;20238;-86
2020/12/08 06:57:05;;;;;;;19.80;14.23;;;4.50;99.90;;;;;;4996358;28;20670;-85
2020/12/08 06:59:31;;;;;;;18.42;13.18;;;4.80;99.90;;;;;;5012541;28;21057;-86
2020/12/08 07:01:58;;;;;;;17.38;12.52;;;4.20;99.90;;;;;;5029319;28;20228;-85
2020/12/08 07:04:29;;;;;;;17.13;12.65;;;4.20;99.90;;;;;;5032810;28;20193;-83
2020/12/08 07:07:02;;;;;;;18.40;11.93;;;4.50;99.90;;;;;;5047616;28;20189;-83
2020/12/08 07:09:32;;;;;;;14.63;11.35;;;4.50;99.90;;;;;;5048876;28;20174;-93
2020/12/08 07:12:06;;;;;;;15.25;11.85;;;4.50;99.90;;;;;;5050121;28;20181;-95
2020/12/08 07:14:37;;;;;;;16.73;10.70;;;4.50;99.90;;;;;;5050188;28;20177;-89
2020/12/08 07:17:07;;;;;;;15.20;11.68;;;4.50;99.90;;;;;;5033660;28;20181;-91
2020/12/08 07:19:33;;;;;;;15.68;11.88;;;4.60;99.90;;;;;;5050429;28;20661;-93
2020/12/08 07:22:08;;;;;;;16.95;12.25;;;4.60;99.90;;;;;;5049969;28;20185;-94
2020/12/08 07:24:44;;;;;;;15.13;12.15;;;4.60;99.90;;;;;;5050348;28;20248;-93
2020/12/08 07:27:11;;;;;;;18.90;13.55;;;4.80;99.90;;;;;;5034704;28;20185;-93
2020/12/08 07:29:40;;;;;;;20.17;13.10;;;4.70;99.90;;;;;;5033537;28;20177;-93
2020/12/08 07:32:06;;;;;;;16.10;12.15;;;4.70;99.90;;;;;;5016326;28;20194;-91
2020/12/08 07:34:33;;;;;;;18.25;12.40;;;4.80;99.90;;;;;;5031434;28;20209;-93
2020/12/08 07:37:02;;;;;;;17.65;12.30;;;4.80;99.90;;;;;;5015102;28;20620;-89
2020/12/08 07:39:29;;;;;;;21.55;12.35;;;4.80;99.90;;;;;;5014110;28;20792;-90
2020/12/08 07:42:03;;;;;;;16.58;12.10;;;4.80;99.90;;;;;;5014393;28;20192;-93
2020/12/08 07:44:33;;;;;;;15.25;11.57;;;4.90;99.90;;;;;;5030469;28;20182;-94
2020/12/08 07:47:02;;;;;;;16.90;12.00;;;4.90;99.90;;;;;;5013604;28;20200;-89
2020/12/08 07:49:41;;;;;;;18.83;13.65;;;4.90;99.90;;;;;;5014614;28;20190;-91
2020/12/08 07:52:10;;;;;;;16.55;12.93;;;5.00;99.90;;;;;;5014505;28;20186;-90
2020/12/08 07:54:38;;;;;;;18.65;14.38;;;5.00;99.90;;;;;;5013746;28;20185;-91
2020/12/08 07:57:04;;;;;;;19.80;12.68;;;5.00;99.90;;;;;;5014399;28;20634;-88
2020/12/08 07:59:32;;;;;;;16.98;12.93;;;5.00;99.90;;;;;;5033388;28;20214;-89
2020/12/08 08:02:01;;;;;;;18.27;14.10;;;5.10;99.90;;;;;;5040081;28;20249;-90
2020/12/08 08:04:29;;;;;;;17.58;12.50;;;5.10;99.90;;;;;;5020320;28;20198;-88
2020/12/08 08:06:55;;;;;;;16.27;12.75;;;5.10;99.90;;;;;;5016095;28;20647;-90
2020/12/08 08:09:24;;;;;;;16.23;12.80;;;5.10;99.90;;;;;;5027472;28;20202;-86
2020/12/08 08:11:49;;;;;;;19.77;13.43;;;5.10;99.90;;;;;;4982712;28;20532;-87
2020/12/08 08:14:16;;;;;;;17.80;12.63;;;5.20;99.90;;;;;;5025624;28;20197;-88
2020/12/08 08:16:44;;;;;;;17.58;12.50;;;5.10;99.90;;;;;;5018290;28;20429;-90
2020/12/08 08:19:10;;;;;;;19.43;12.53;;;5.20;99.90;;;;;;5016280;28;20214;-91
2020/12/08 08:21:36;;;;;;;16.23;13.20;;;5.20;99.90;;;;;;5038123;28;20486;-88
2020/12/08 08:24:02;;;;;;;16.90;12.68;;;5.20;99.90;;;;;;4993127;28;20889;-90
2020/12/08 08:26:31;;;;;;;17.80;12.88;;;5.30;99.90;;;;;;5020097;28;20255;-90
2020/12/08 08:28:57;;;;;;;21.30;13.13;;;4.80;99.90;;;;;;5041739;28;20652;-88
2020/12/08 08:31:23;;;;;;;17.80;13.05;;;5.30;99.90;;;;;;5037110;28;20271;-92
2020/12/08 08:33:49;;;;;;;17.63;12.18;;;5.30;99.90;;;;;;5002069;28;20193;-93
2020/12/08 08:36:15;;;;;;;16.30;12.37;;;5.30;99.90;;;;;;4988093;28;20200;-87
2020/12/08 08:38:43;;;;;;;17.45;12.60;;;5.40;99.90;;;;;;4986026;28;20507;-91
2020/12/08 08:41:09;;;;;;;17.85;13.35;;;5.40;99.90;;;;;;4982387;28;20194;-89
2020/12/08 08:43:38;;;;;;;18.00;12.23;;;5.40;99.90;;;;;;5001199;28;20190;-89
2020/12/08 08:46:04;;;;;;;15.25;11.80;;;5.40;99.90;;;;;;5020517;28;20186;-89
2020/12/08 08:48:31;;;;;;;19.70;13.23;;;5.50;99.90;;;;;;5011947;28;20193;-90
2020/12/08 08:50:59;;;;;;;16.80;12.02;;;5.40;99.90;;;;;;5019430;28;20486;-89
2020/12/08 08:53:25;;;;;;;16.67;12.43;;;5.40;99.90;;;;;;5019339;28;20189;-89
2020/12/08 08:55:51;;;;;;;17.47;12.60;;;5.40;99.90;;;;;;5003401;28;20200;-91
2020/12/08 08:58:17;;;;;;;21.50;12.50;;;5.40;99.90;;;;;;5000276;28;20449;-89
2020/12/08 09:00:43;;;;;;;16.70;11.93;;;5.40;99.90;;;;;;4984069;28;20503;-90
2020/12/08 09:07:29;;;;;;;23.77;14.38;;;5.50;99.90;;;;;;5040783;22;20415;-75
2020/12/08 09:09:59;;;;;;;20.20;13.40;;;5.50;99.90;;;;;;5052456;28;20203;-74
2020/12/08 09:12:26;;;;;;;16.38;12.60;;;5.60;99.90;;;;;;5034836;28;20688;-74
2020/12/08 09:14:56;;;;;;;18.90;12.27;;;5.60;99.90;;;;;;5015480;28;20587;-74
2020/12/08 09:17:23;;;;;;;19.33;13.05;;;5.60;99.90;;;;;;5030889;28;20579;-74
2020/12/08 09:19:49;;;;;;;18.00;13.23;;;5.70;99.90;;;;;;5018732;28;20577;-74
2020/12/08 09:22:15;;;;;;;17.30;12.57;;;5.70;99.90;;;;;;5013955;28;20205;-74
2020/12/08 09:24:41;;;;;;;16.92;11.70;;;5.70;99.90;;;;;;5005174;28;20201;-74
2020/12/08 09:27:07;;;;;;;17.23;12.57;;;5.70;99.90;;;;;;5038623;28;20535;-74
2020/12/08 09:29:34;;;;;;;17.77;12.73;;;5.70;99.90;;;;;;5033896;28;20185;-73
2020/12/08 09:32:01;;;;;;;17.25;12.77;;;5.70;99.90;;;;;;5026564;28;20197;-74
2020/12/08 09:34:27;;;;;;;15.50;11.77;;;5.80;99.90;;;;;;5018734;28;20213;-74
2020/12/08 09:36:55;;;;;;;16.50;12.40;;;5.80;99.90;;;;;;5038350;28;20181;-75
2020/12/08 09:39:21;;;;;;;16.00;11.45;;;5.80;99.90;;;;;;5024161;28;20205;-74
2020/12/08 09:41:48;;;;;;;21.27;12.65;;;5.80;99.90;;;;;;5027475;28;20168;-74
2020/12/08 09:44:14;;;;;;;17.70;13.07;;;5.90;99.90;;;;;;5020885;28;20209;-75
2020/12/08 09:46:44;;;;;;;18.15;12.10;;;5.90;99.90;;;;;;5041798;28;20192;-73
2020/12/08 09:49:15;;;;;;;17.20;12.52;;;5.90;99.90;;;;;;5034256;28;20234;-74
2020/12/08 09:51:41;;;;;;;19.50;13.50;;;5.90;99.90;;;;;;5034367;28;20220;-74
2020/12/08 09:54:08;;;;;;;18.55;12.85;;;5.90;99.90;;;;;;5002928;28;20188;-74
2020/12/08 09:56:34;;;;;;;20.20;13.57;;;6.00;99.90;;;;;;5007743;28;20208;-74
2020/12/08 09:59:03;;;;;;;18.20;12.70;;;6.10;99.90;;;;;;4989418;28;20240;-74
2020/12/08 10:01:32;;;;;;;15.48;12.07;;;6.10;99.90;;;;;;5022774;28;20189;-76
2020/12/08 10:04:01;;;;;;;17.25;13.02;;;6.10;99.90;;;;;;5025291;28;20242;-75
2020/12/08 10:06:28;;;;;;;15.32;12.32;;;6.20;99.90;;;;;;5041211;28;20181;-75
2020/12/08 10:08:57;;;;;;;16.20;11.68;;;6.20;99.90;;;;;;5012533;28;20297;-75
2020/12/08 10:11:24;;;;;;;15.98;11.93;;;6.20;99.90;;;;;;5010281;28;20298;-76
2020/12/08 10:13:54;;;;;;;16.23;12.38;;;6.20;99.90;;;;;;5016001;28;20180;-75
2020/12/08 10:16:24;;;;;;;14.40;11.80;;;6.20;99.90;;;;;;5036932;28;20610;-75
2020/12/08 10:18:51;;;;;;;14.98;11.90;;;6.30;99.90;;;;;;5026297;28;20181;-75
2020/12/08 10:21:20;;;;;;;14.15;11.25;;;6.30;99.90;;;;;;5033540;28;20180;-75
2020/12/08 10:23:46;;;;;;;17.55;11.73;;;6.30;99.90;;;;;;4994464;28;20257;-75
2020/12/08 10:26:13;;;;;;;15.75;12.10;;;6.30;99.90;;;;;;5001133;28;20745;-76
2020/12/08 10:28:39;;;;;;;14.15;11.07;;;6.40;99.90;;;;;;5020968;28;20541;-75
2020/12/08 10:31:05;;;;;;;14.23;10.25;;;6.40;99.90;;;;;;5051288;28;20180;-75
2020/12/08 10:33:32;;;;;;;13.93;10.13;;;6.50;99.90;;;;;;5026213;28;20181;-75
2020/12/08 10:36:00;;;;;;;11.63;9.80;;;6.50;99.90;;;;;;5052444;28;20201;-75
2020/12/08 10:38:27;;;;;;;12.07;10.02;;;6.60;99.90;;;;;;5034512;28;20228;-75
2020/12/08 10:40:57;;;;;;;10.50;8.85;;;6.60;99.90;;;;;;5023455;28;20229;-75
2020/12/08 10:43:23;;;;;;;12.18;9.52;;;6.70;99.90;;;;;;5029125;28;20176;-75
2020/12/08 10:45:50;;;;;;;10.20;9.00;;;6.70;99.90;;;;;;5034797;28;20204;-75
2020/12/08 10:48:19;;;;;;;10.43;9.07;;;6.70;99.90;;;;;;5012759;28;20269;-75
2020/12/08 10:50:46;;;;;;;11.38;10.20;;;6.70;99.90;;;;;;5003723;28;20190;-78
2020/12/08 10:53:12;;;;;;;9.70;8.38;;;6.70;99.90;;;;;;4996515;28;20200;-74
2020/12/08 10:55:39;;;;;;;10.63;8.15;;;6.80;99.90;;;;;;5010308;28;20692;-74
2020/12/08 10:58:05;;;;;;;10.60;9.13;;;6.80;99.90;;;;;;5018354;28;20214;-75
2020/12/08 11:00:32;;;;;;;11.70;8.75;;;6.80;99.90;;;;;;5011695;28;20763;-77
2020/12/08 11:02:59;;;;;;;7.82;7.03;;;6.80;99.90;;;;;;5025473;28;20215;-77
2020/12/08 11:05:26;;;;;;;8.27;7.40;;;6.90;99.90;;;;;;4996531;28;20206;-76
2020/12/08 11:07:55;;;;;;;10.82;8.50;;;7.00;99.90;;;;;;4986799;28;20279;-74
2020/12/08 11:10:21;;;;;;;9.38;8.20;;;7.00;99.90;;;;;;5004227;28;20665;-75
2020/12/08 11:12:48;;;;;;;10.45;6.65;;;7.00;99.90;;;;;;5019844;28;20189;-75
2020/12/08 11:15:14;;;;;;;7.57;6.50;;;7.10;99.90;;;;;;5001467;28;20219;-72
2020/12/08 11:17:45;;;;;;;7.68;6.88;;;7.20;99.90;;;;;;5010400;28;20196;-76
2020/12/08 11:20:11;;;;;;;7.72;7.03;;;7.20;99.90;;;;;;5046652;28;20208;-76
2020/12/08 11:22:38;;;;;;;8.75;7.40;;;7.30;99.90;;;;;;5016224;28;20257;-75
2020/12/08 11:25:09;;;;;;;10.60;7.87;;;7.40;99.90;;;;;;5015805;28;20693;-75
2020/12/08 11:27:35;;;;;;;9.18;8.45;;;7.50;99.90;;;;;;4998910;28;20425;-75
2020/12/08 11:30:05;;;;;;;9.23;6.63;;;7.60;99.90;;;;;;4993164;28;20287;-75
2020/12/08 11:32:31;;;;;;;5.90;5.30;;;7.60;99.90;;;;;;4979782;28;20252;-75
2020/12/08 11:35:00;;;;;;;6.22;5.63;;;7.60;99.90;;;;;;5008219;28;20296;-75
2020/12/08 11:37:29;;;;;;;7.32;6.45;;;7.60;99.90;;;;;;4996317;28;20201;-75
2020/12/08 11:39:55;;;;;;;6.68;5.90;;;7.60;99.90;;;;;;4994400;28;20279;-75
2020/12/08 11:42:21;;;;;;;7.07;6.33;;;7.60;99.90;;;;;;5004629;28;20201;-75
2020/12/08 11:44:47;;;;;;;6.80;6.13;;;7.50;99.90;;;;;;5021377;28;20451;-75
2020/12/08 11:47:14;;;;;;;7.47;6.77;;;7.50;99.90;;;;;;5030527;28;20205;-74
2020/12/08 11:49:40;;;;;;;8.82;6.18;;;7.50;99.90;;;;;;5010005;28;20428;-74
2020/12/08 11:52:12;;;;;;;6.88;6.28;;;7.40;99.90;;;;;;5015516;28;20216;-75
2020/12/08 11:54:39;;;;;;;7.53;6.82;;;7.40;99.90;;;;;;5022498;28;20266;-75
2020/12/08 11:57:06;;;;;;;7.20;6.50;;;7.40;99.90;;;;;;5016939;28;20189;-76
2020/12/08 11:59:32;;;;;;;9.00;6.85;;;7.30;99.90;;;;;;5033005;28;20221;-75
2020/12/08 12:01:58;;;;;;;8.32;7.50;;;7.30;99.90;;;;;;5028897;28;20194;-76
2020/12/08 12:04:27;;;;;;;7.22;6.53;;;7.30;99.90;;;;;;4982586;28;20216;-76
2020/12/08 12:06:53;;;;;;;8.55;7.75;;;7.40;99.90;;;;;;4988824;28;20240;-75
2020/12/08 12:09:19;;;;;;;9.63;7.60;;;7.40;99.90;;;;;;5025583;28;20739;-76
2020/12/08 12:11:48;;;;;;;8.10;7.30;;;7.40;99.90;;;;;;5019219;28;20541;-76
2020/12/08 12:14:14;;;;;;;8.30;7.60;;;7.30;99.90;;;;;;5020949;28;20208;-76
2020/12/08 12:16:42;;;;;;;9.90;7.53;;;7.40;99.90;;;;;;5021826;28;20940;-75
2020/12/08 12:19:13;;;;;;;8.67;7.80;;;7.40;99.90;;;;;;5022707;28;20507;-76
2020/12/08 12:21:39;;;;;;;10.00;7.50;;;7.50;99.90;;;;;;5014241;28;20433;-76
2020/12/08 12:24:11;;;;;;;8.00;7.20;;;7.50;99.90;;;;;;5013872;28;20208;-76
2020/12/08 12:26:39;;;;;;;9.20;8.20;;;7.60;99.90;;;;;;5000392;28;20435;-76
2020/12/08 12:29:05;;;;;;;8.35;7.50;;;7.60;99.90;;;;;;5024700;28;20431;-76
2020/12/08 12:31:34;;;;;;;11.43;7.60;;;7.60;99.90;;;;;;5017432;28;20247;-74
2020/12/08 12:34:01;;;;;;;10.30;9.30;;;7.50;99.90;;;;;;5013449;28;20444;-76
2020/12/08 12:36:33;;;;;;;12.70;8.53;;;7.50;99.90;;;;;;5013806;28;20461;-77
2020/12/08 12:38:59;;;;;;;9.50;8.50;;;7.50;99.90;;;;;;5024938;28;20431;-76
2020/12/08 12:41:27;;;;;;;9.98;8.63;;;7.50;99.90;;;;;;5015418;28;20565;-76
2020/12/08 12:43:54;;;;;;;10.20;9.00;;;7.50;99.90;;;;;;5021764;28;20189;-76
2020/12/08 12:46:20;;;;;;;11.47;9.73;;;7.40;99.90;;;;;;4996196;28;20245;-77
2020/12/08 12:48:46;;;;;;;10.40;8.73;;;7.40;99.90;;;;;;5029726;28;20450;-73
2020/12/08 12:51:15;;;;;;;9.73;8.83;;;7.40;99.90;;;;;;4998883;28;20192;-76
2020/12/08 12:53:44;;;;;;;9.75;8.85;;;7.40;99.90;;;;;;5024458;28;20464;-76